createdAt,value
2022-10-13T00:01:13.128Z,100348.19
2022-10-13T00:03:40.678Z,100344.56
2022-10-13T00:06:09.401Z,100340.59
2022-10-13T00:08:38.049Z,100327.84
2022-10-13T00:11:14.243Z,100344.53
2022-10-13T00:13:41.668Z,100345.41
2022-10-13T00:16:09.046Z,100339.13
2022-10-13T00:18:35.760Z,100343.41
2022-10-13T00:21:07.941Z,100341.91
2022-10-13T00:23:35.231Z,100320.91
2022-10-13T00:26:04.813Z,100335.94
2022-10-13T00:28:31.790Z,100315.78
2022-10-13T00:30:58.947Z,100315.28
2022-10-13T00:33:25.854Z,100333.63
2022-10-13T00:35:52.613Z,100343.38
2022-10-13T00:38:21.482Z,100341.22
2022-10-13T00:40:54.513Z,100325.34
2022-10-13T00:43:27.419Z,100333.47
2022-10-13T00:45:54.380Z,100303.34
2022-10-13T00:48:26.083Z,100341.22
2022-10-13T00:50:53.813Z,100310.78
2022-10-13T00:53:23.491Z,100330.78
2022-10-13T00:55:52.300Z,100340.22
2022-10-13T00:58:23.685Z,100339.72
2022-10-13T01:00:52.841Z,100336.59
2022-10-13T01:03:21.185Z,100344.84
2022-10-13T01:05:50.004Z,100311.09
2022-10-13T01:08:18.040Z,100306.00
2022-10-13T01:11:13.399Z,100331.66
2022-10-13T01:13:55.049Z,100322.38
2022-10-13T01:16:40.895Z,100335.28
2022-10-13T01:19:28.909Z,100323.53
2022-10-13T01:22:24.705Z,100316.25
2022-10-13T01:25:07.718Z,100326.00
2022-10-13T01:27:53.396Z,100324.53
2022-10-13T01:30:22.513Z,100319.75
2022-10-13T01:33:01.463Z,100313.44
2022-10-13T01:35:47.891Z,100305.66
2022-10-13T01:38:35.008Z,100310.09
2022-10-13T01:41:26.440Z,100304.97
2022-10-13T01:44:16.112Z,100269.59
2022-10-13T01:46:51.588Z,100293.91
2022-10-13T01:49:20.985Z,100298.56
2022-10-13T01:51:48.832Z,100303.06
2022-10-13T01:54:15.769Z,100290.97
2022-10-13T01:56:42.497Z,100300.38
2022-10-13T01:59:14.385Z,100292.59
2022-10-13T02:01:48.445Z,100304.03
2022-10-13T02:04:37.184Z,100298.41
2022-10-13T02:07:22.964Z,100307.84
2022-10-13T02:10:20.398Z,100302.69
2022-10-13T02:12:51.065Z,100308.81
2022-10-13T02:15:23.497Z,100310.97
2022-10-13T02:17:52.154Z,100287.97
2022-10-13T02:20:21.095Z,100307.97
2022-10-13T02:22:54.130Z,100284.16
2022-10-13T02:25:20.903Z,100316.25
2022-10-13T02:27:50.008Z,100308.81
2022-10-13T02:30:26.171Z,100317.09
2022-10-13T02:32:52.904Z,100295.06
2022-10-13T02:35:19.565Z,100299.19
2022-10-13T02:37:46.344Z,100291.59
2022-10-13T02:40:13.702Z,100293.75
2022-10-13T02:42:40.460Z,100308.47
2022-10-13T02:45:08.186Z,100313.28
2022-10-13T02:47:34.925Z,100315.44
2022-10-13T02:50:04.824Z,100302.06
2022-10-13T02:52:31.672Z,100313.28
2022-10-13T02:54:58.335Z,100318.72
2022-10-13T02:57:25.051Z,100311.63
2022-10-13T02:59:52.447Z,100311.13
2022-10-13T03:02:19.837Z,100285.63
2022-10-13T03:04:47.169Z,100278.50
2022-10-13T03:07:13.895Z,100296.00
2022-10-13T03:09:40.710Z,100294.84
2022-10-13T03:12:07.608Z,100279.13
2022-10-13T03:14:35.485Z,100286.44
2022-10-13T03:17:02.355Z,100292.69
2022-10-13T03:19:29.001Z,100263.25
2022-10-13T03:21:55.708Z,100284.69
2022-10-13T03:24:22.523Z,100289.47
2022-10-13T03:26:49.250Z,100283.81
2022-10-13T03:29:20.051Z,100290.94
2022-10-13T03:31:46.708Z,100283.25
2022-10-13T03:34:16.255Z,100270.06
2022-10-13T03:36:43.450Z,100297.66
2022-10-13T03:39:10.069Z,100295.91
2022-10-13T03:41:36.798Z,100295.53
2022-10-13T03:44:03.529Z,100265.91
2022-10-13T03:46:30.720Z,100297.75
2022-10-13T03:48:58.682Z,100270.94
2022-10-13T03:51:25.532Z,100265.94
2022-10-13T03:53:52.685Z,100270.19
2022-10-13T03:56:25.128Z,100276.09
2022-10-13T03:58:55.792Z,100266.13
2022-10-13T04:01:25.966Z,100257.56
2022-10-13T04:03:54.633Z,100268.59
2022-10-13T04:06:22.285Z,100257.75
2022-10-13T04:08:49.685Z,100271.38
2022-10-13T04:11:16.908Z,100261.59
2022-10-13T04:13:44.865Z,100271.63
2022-10-13T04:16:31.790Z,100267.44
2022-10-13T04:19:01.860Z,100258.22
2022-10-13T04:21:30.399Z,100267.28
2022-10-13T04:23:59.221Z,100274.28
2022-10-13T04:26:28.118Z,100270.94
2022-10-13T04:28:55.993Z,100274.69
2022-10-13T04:31:23.703Z,100277.97
2022-10-13T04:33:51.159Z,100276.13
2022-10-13T04:36:18.215Z,100270.59
2022-10-13T04:38:46.582Z,100257.50
2022-10-13T04:41:16.113Z,100263.88
2022-10-13T04:43:43.330Z,100260.50
2022-10-13T04:46:13.922Z,100258.06
2022-10-13T04:48:40.652Z,100265.06
2022-10-13T04:51:09.892Z,100256.56
2022-10-13T04:54:01.059Z,100271.91
2022-10-13T04:56:28.612Z,100269.88
2022-10-13T04:58:59.973Z,100254.34
2022-10-13T05:01:27.096Z,100269.03
2022-10-13T05:04:00.402Z,100266.09
2022-10-13T05:06:30.267Z,100263.97
2022-10-13T05:08:57.340Z,100244.63
2022-10-13T05:11:26.535Z,100263.63
2022-10-13T05:13:53.480Z,100266.44
2022-10-13T05:16:21.222Z,100271.00
2022-10-13T05:18:54.711Z,100264.03
2022-10-13T05:21:27.349Z,100282.50
2022-10-13T05:23:55.852Z,100276.72
2022-10-13T05:26:28.820Z,100252.69
2022-10-13T05:28:56.952Z,100273.31
2022-10-13T05:31:26.730Z,100263.53
2022-10-13T05:33:53.739Z,100263.19
2022-10-13T05:36:31.354Z,100262.88
2022-10-13T05:39:00.506Z,100252.72
2022-10-13T05:41:28.897Z,100240.53
2022-10-13T05:44:02.002Z,100251.91
2022-10-13T05:46:28.905Z,100238.72
2022-10-13T05:48:55.756Z,100240.91
2022-10-13T05:51:38.102Z,100261.22
2022-10-13T05:54:08.675Z,100252.38
2022-10-13T05:56:44.633Z,100253.38
2022-10-13T05:59:15.658Z,100250.84
2022-10-13T06:01:47.430Z,100252.22
2022-10-13T06:04:20.368Z,100252.19
2022-10-13T06:06:49.055Z,100237.09
2022-10-13T06:09:16.208Z,100219.78
2022-10-13T06:11:43.443Z,100237.94
2022-10-13T06:14:10.180Z,100245.13
2022-10-13T06:16:37.036Z,100231.66
2022-10-13T06:19:05.525Z,100245.59
2022-10-13T06:21:35.133Z,100235.63
2022-10-13T06:24:02.234Z,100236.00
2022-10-13T06:26:28.933Z,100226.34
2022-10-13T06:28:59.502Z,100225.06
2022-10-13T06:31:27.536Z,100204.69
2022-10-13T06:33:54.712Z,100196.59
2022-10-13T06:36:21.635Z,100215.53
2022-10-13T06:38:48.271Z,100220.56
2022-10-13T06:41:17.160Z,100219.69
2022-10-13T06:43:44.132Z,100209.69
2022-10-13T06:46:11.865Z,100221.41
2022-10-13T06:48:38.686Z,100207.72
2022-10-13T06:51:07.693Z,100190.34
2022-10-13T06:53:34.626Z,100206.66
2022-10-13T06:56:04.216Z,100214.00
2022-10-13T06:58:31.032Z,100206.91
2022-10-13T07:01:23.030Z,100216.34
2022-10-13T07:03:50.715Z,100218.75
2022-10-13T07:06:20.868Z,100217.72
2022-10-13T07:08:49.439Z,100209.13
2022-10-13T07:11:17.244Z,100203.47
2022-10-13T07:13:48.395Z,100211.34
2022-10-13T07:16:15.606Z,100216.47
2022-10-13T07:18:42.439Z,100195.66
2022-10-13T07:21:09.469Z,100210.63
2022-10-13T07:23:36.154Z,100210.19
2022-10-13T07:26:07.703Z,100206.31
2022-10-13T07:28:34.751Z,100204.34
2022-10-13T07:31:08.107Z,100202.94
2022-10-13T07:33:37.366Z,100206.91
2022-10-13T07:36:04.786Z,100208.53
2022-10-13T07:38:31.498Z,100222.13
2022-10-13T07:41:05.680Z,100212.84
2022-10-13T07:43:32.854Z,100215.94
2022-10-13T07:46:07.638Z,100220.88
2022-10-13T07:48:35.445Z,100227.03
2022-10-13T07:51:12.907Z,100202.31
2022-10-13T07:53:41.771Z,100207.09
2022-10-13T07:56:11.710Z,100189.25
2022-10-13T07:58:40.140Z,100192.34
2022-10-13T08:01:07.725Z,100188.88
2022-10-13T08:03:40.225Z,100194.47
2022-10-13T08:06:09.307Z,100200.94
2022-10-13T08:08:36.325Z,100200.16
2022-10-13T08:11:05.090Z,100185.66
2022-10-13T08:13:31.872Z,100194.50
2022-10-13T08:16:05.887Z,100196.22
2022-10-13T08:18:32.571Z,100197.06
2022-10-13T08:23:50.680Z,100189.00
2022-10-13T08:26:23.807Z,100164.38
2022-10-13T08:29:09.468Z,100174.22
2022-10-13T08:31:38.809Z,100170.09
2022-10-13T08:34:05.778Z,100161.25
2022-10-13T08:36:32.512Z,100142.75
2022-10-13T08:38:59.210Z,100141.66
2022-10-13T08:41:29.965Z,100140.09
2022-10-13T08:47:12.238Z,100146.72
2022-10-13T08:49:41.195Z,100158.19
2022-10-13T08:52:18.552Z,100174.63
2022-10-13T08:54:45.796Z,100122.00
2022-10-13T08:57:12.547Z,100171.31
2022-10-13T08:59:39.369Z,100167.56
2022-10-13T09:02:31.425Z,100162.06
2022-10-13T09:05:03.311Z,100182.44
2022-10-13T09:07:35.085Z,100156.38
2022-10-13T09:10:01.867Z,100159.06
2022-10-13T09:12:28.632Z,100080.78
2022-10-13T09:15:01.845Z,100179.19
2022-10-13T09:17:31.124Z,100171.59
2022-10-13T09:20:07.155Z,100182.06
2022-10-13T09:22:39.295Z,100182.47
2022-10-13T09:25:10.890Z,100192.50
2022-10-13T09:28:01.695Z,100188.13
2022-10-13T09:30:39.063Z,100190.56
2022-10-13T09:33:09.017Z,100196.72
2022-10-13T09:35:38.152Z,100184.41
2022-10-13T09:38:13.251Z,100186.84
2022-10-13T09:40:41.000Z,100191.19
2022-10-13T09:43:28.995Z,100195.53
2022-10-13T09:45:56.953Z,100196.34
2022-10-13T09:48:30.706Z,100180.53
2022-10-13T09:50:57.722Z,100180.13
2022-10-13T09:53:28.815Z,100183.81
2022-10-13T09:56:18.310Z,100184.66
2022-10-13T09:58:54.191Z,100181.59
2022-10-13T10:01:27.903Z,100188.97
2022-10-13T10:03:55.426Z,100193.09
2022-10-13T10:06:25.424Z,100171.25
2022-10-13T10:09:22.349Z,100184.22
2022-10-13T10:11:53.432Z,100177.47
2022-10-13T10:14:26.407Z,100180.81
2022-10-13T10:17:23.444Z,100177.72
2022-10-13T10:20:27.646Z,100167.28
2022-10-13T10:23:13.544Z,100175.06
2022-10-13T10:25:45.599Z,100146.53
2022-10-13T10:28:15.017Z,100164.19
2022-10-13T10:30:51.595Z,100158.22
2022-10-13T10:33:26.263Z,100158.41
2022-10-13T10:36:02.564Z,100143.81
2022-10-13T10:38:46.574Z,100141.75
2022-10-13T10:41:16.084Z,100138.00
2022-10-13T10:43:43.766Z,100139.56
2022-10-13T10:46:23.483Z,100127.75
2022-10-13T10:48:55.176Z,100146.06
2022-10-13T10:51:27.805Z,100145.50
2022-10-13T10:54:23.630Z,100144.25
2022-10-13T10:57:05.851Z,100141.00
2022-10-13T11:00:15.688Z,100154.13
2022-10-13T11:03:03.965Z,100132.13
2022-10-13T11:05:59.877Z,100125.25
2022-10-13T11:08:47.827Z,100129.16
2022-10-13T11:11:26.704Z,100133.84
2022-10-13T11:14:07.023Z,100122.75
2022-10-13T11:16:34.934Z,100116.38
2022-10-13T11:19:06.050Z,100102.09
2022-10-13T11:21:54.845Z,100083.34
2022-10-13T11:24:52.252Z,100072.53
2022-10-13T11:27:18.915Z,100070.25
2022-10-13T11:29:57.827Z,100073.78
2022-10-13T11:32:41.113Z,100083.56
2022-10-13T11:35:08.262Z,100073.91
2022-10-13T11:38:06.105Z,100074.38
2022-10-13T11:41:06.169Z,100057.66
2022-10-13T11:43:47.636Z,100038.78
2022-10-13T11:46:20.107Z,100043.41
2022-10-13T11:49:20.624Z,100036.72
2022-10-13T11:51:55.826Z,100046.56
2022-10-13T11:54:37.198Z,100051.44
2022-10-13T11:57:18.612Z,100043.84
2022-10-13T11:59:47.918Z,100037.81
2022-10-13T12:02:18.877Z,100051.31
2022-10-13T12:05:05.140Z,100046.38
2022-10-13T12:07:41.530Z,100054.13
2022-10-13T12:10:24.329Z,100046.25
2022-10-13T12:12:51.582Z,100017.91
2022-10-13T12:15:32.134Z,100009.28
2022-10-13T12:17:59.008Z,99990.22
2022-10-13T12:20:32.447Z,99986.13
2022-10-13T12:22:59.241Z,99987.75
2022-10-13T12:25:30.112Z,99966.25
2022-10-13T12:28:01.113Z,99980.63
2022-10-13T12:30:36.926Z,99979.25
2022-10-13T12:33:18.003Z,99981.16
2022-10-13T12:35:44.779Z,99984.16
2022-10-13T12:38:19.388Z,99987.56
2022-10-13T12:40:49.012Z,99986.50
2022-10-13T12:43:19.670Z,99984.28
2022-10-13T12:45:48.888Z,99976.81
2022-10-13T12:48:49.944Z,99969.94
2022-10-13T12:51:28.000Z,99959.38
2022-10-13T12:53:55.094Z,99956.94
2022-10-13T12:56:30.751Z,99953.63
2022-10-13T12:58:58.187Z,99956.69
2022-10-13T13:01:34.132Z,99959.03
2022-10-13T13:04:21.050Z,99969.97
2022-10-13T13:07:02.675Z,99947.38
2022-10-13T13:09:34.366Z,99945.88
2022-10-13T13:12:23.037Z,99962.38
2022-10-13T13:14:54.718Z,99960.03
2022-10-13T13:17:52.997Z,99947.59
2022-10-13T13:20:29.798Z,99958.94
2022-10-13T13:22:57.359Z,99959.72
2022-10-13T13:25:24.828Z,99950.72
2022-10-13T13:27:52.339Z,99947.84
2022-10-13T13:30:23.000Z,99962.50
2022-10-13T13:32:50.458Z,99966.66
2022-10-13T13:35:17.457Z,99961.47
2022-10-13T13:37:50.497Z,99943.63
2022-10-13T13:40:23.149Z,99956.47
2022-10-13T13:42:50.283Z,99959.88
2022-10-13T13:45:20.778Z,99958.31
2022-10-13T13:47:47.958Z,99967.31
2022-10-13T13:50:22.887Z,99958.41
2022-10-13T13:52:59.168Z,99935.00
2022-10-13T13:55:26.920Z,99959.50
2022-10-13T13:57:53.663Z,99951.84
2022-10-13T14:00:20.781Z,99927.59
2022-10-13T14:02:53.209Z,99939.03
2022-10-13T14:05:20.019Z,99923.50
2022-10-13T14:07:46.748Z,99938.53
2022-10-13T14:10:13.779Z,99943.88
2022-10-13T14:12:40.586Z,99939.41
2022-10-13T14:15:08.069Z,99937.69
2022-10-13T14:17:34.830Z,99917.09
2022-10-13T14:20:01.582Z,99927.91
2022-10-13T14:22:28.364Z,99894.22
2022-10-13T14:24:55.054Z,99936.53
2022-10-13T14:27:21.823Z,99917.44
2022-10-13T14:29:48.549Z,99899.44
2022-10-13T14:32:15.791Z,99885.13
2022-10-13T14:34:42.811Z,99910.75
2022-10-13T14:37:09.878Z,99929.53
2022-10-13T14:39:39.104Z,99934.63
2022-10-13T14:42:06.785Z,99929.50
2022-10-13T14:44:33.799Z,99919.19
2022-10-13T14:47:00.552Z,99915.78
2022-10-13T14:49:27.336Z,99924.09
2022-10-13T14:51:54.289Z,99932.03
2022-10-13T14:54:21.029Z,99930.16
2022-10-13T14:56:47.923Z,99906.56
2022-10-13T14:59:14.762Z,99913.88
2022-10-13T15:01:42.912Z,99929.50
2022-10-13T15:04:10.219Z,99930.53
2022-10-13T15:06:39.292Z,99913.16
2022-10-13T15:11:41.198Z,99930.81
2022-10-13T15:14:09.700Z,99939.13
2022-10-13T15:16:37.796Z,99947.50
2022-10-13T15:19:04.914Z,99949.06
2022-10-13T15:21:31.722Z,99947.28
2022-10-13T15:23:58.430Z,99907.53
2022-10-13T15:26:25.136Z,99917.53
2022-10-13T15:28:53.500Z,99933.59
2022-10-13T15:31:22.406Z,99895.38
2022-10-13T15:33:51.826Z,99941.41
2022-10-13T15:36:22.165Z,99937.69
2022-10-13T15:38:48.959Z,99936.50
2022-10-13T15:41:16.167Z,99932.09
2022-10-13T15:43:43.298Z,99930.75
2022-10-13T15:46:21.136Z,99931.78
2022-10-13T15:48:49.546Z,99926.50
2022-10-13T15:51:19.520Z,99936.41
2022-10-13T15:53:49.337Z,99942.66
2022-10-13T15:56:16.723Z,99929.53
2022-10-13T15:58:43.735Z,99911.38
2022-10-13T16:01:12.406Z,99925.72
2022-10-13T16:03:39.658Z,99928.38
2022-10-13T16:06:08.614Z,99913.69
2022-10-13T16:08:40.165Z,99932.59
2022-10-13T16:11:11.959Z,99937.94
2022-10-13T16:13:39.430Z,99914.19
2022-10-13T16:16:06.529Z,99929.72
2022-10-13T16:18:36.132Z,99922.16
2022-10-13T16:21:19.022Z,99920.94
2022-10-13T16:23:47.333Z,99925.00
2022-10-13T16:26:15.322Z,99933.84
2022-10-13T16:28:42.073Z,99927.25
2022-10-13T16:31:14.544Z,99923.56
2022-10-13T16:33:45.290Z,99920.25
2022-10-13T16:36:15.460Z,99928.47
2022-10-13T16:38:43.582Z,99901.00
2022-10-13T16:41:13.917Z,99934.44
2022-10-13T16:43:42.192Z,99934.25
2022-10-13T16:46:13.254Z,99935.53
2022-10-13T16:48:41.279Z,99935.53
2022-10-13T16:51:10.568Z,99932.25
2022-10-13T16:53:38.651Z,99936.00
2022-10-13T16:56:06.734Z,99929.13
2022-10-13T16:58:34.133Z,99918.72
2022-10-13T17:01:11.120Z,99908.88
2022-10-13T17:03:39.336Z,99922.00
2022-10-13T17:06:06.934Z,99923.41
2022-10-13T17:08:34.001Z,99920.34
2022-10-13T17:11:03.440Z,99931.47
2022-10-13T17:13:31.549Z,99936.25
2022-10-13T17:15:58.938Z,99922.31
2022-10-13T17:18:27.660Z,99926.59
2022-10-13T17:20:57.177Z,99921.09
2022-10-13T17:23:24.647Z,99934.22
2022-10-13T17:25:52.400Z,99941.66
2022-10-13T17:28:19.901Z,99945.53
2022-10-13T17:31:00.394Z,99944.13
2022-10-13T17:33:28.469Z,99947.03
2022-10-13T17:36:06.534Z,99927.53
2022-10-13T17:38:34.354Z,99948.00
2022-10-13T17:41:03.378Z,99946.19
2022-10-13T17:43:30.948Z,99942.03
2022-10-13T17:46:35.031Z,99941.66
2022-10-13T17:49:00.655Z,99931.56
2022-10-13T17:51:27.947Z,99932.81
2022-10-13T17:53:55.024Z,99943.47
2022-10-13T17:56:24.122Z,99937.97
2022-10-13T17:58:51.206Z,99954.22
2022-10-13T18:01:24.260Z,99954.22
2022-10-13T18:03:57.397Z,99948.06
2022-10-13T18:06:43.862Z,99946.84
2022-10-13T18:09:24.151Z,99945.84
2022-10-13T18:11:53.805Z,99947.06
2022-10-13T18:14:22.627Z,99946.91
2022-10-13T18:16:50.918Z,99950.59
2022-10-13T18:19:18.068Z,99922.50
2022-10-13T18:21:44.871Z,99935.19
2022-10-13T18:24:12.064Z,99941.75
2022-10-13T18:26:39.560Z,99941.34
2022-10-13T18:29:07.983Z,99942.38
2022-10-13T18:31:36.747Z,99941.38
2022-10-13T18:34:06.559Z,99951.66
2022-10-13T18:36:34.802Z,99945.28
2022-10-13T18:39:07.805Z,99936.06
2022-10-13T18:41:35.860Z,99880.31
2022-10-13T18:44:03.946Z,99954.16
2022-10-13T18:46:32.068Z,99941.44
2022-10-13T18:48:58.878Z,99958.88
2022-10-13T18:51:26.178Z,99951.28
2022-10-13T18:53:52.978Z,99953.75
2022-10-13T18:56:26.314Z,99918.03
2022-10-13T18:58:59.474Z,99940.41
2022-10-13T19:01:28.885Z,99952.91
2022-10-13T19:03:56.208Z,99937.53
2022-10-13T19:06:27.038Z,99959.47
2022-10-13T19:09:02.542Z,99934.69
2022-10-13T19:11:30.524Z,99957.25
2022-10-13T19:13:58.615Z,99961.53
2022-10-13T19:16:27.559Z,99955.78
2022-10-13T19:18:54.828Z,99938.16
2022-10-13T19:21:22.945Z,99957.66
2022-10-13T19:23:50.230Z,99943.06
2022-10-13T19:26:24.475Z,99950.06
2022-10-13T19:28:56.081Z,99963.19
2022-10-13T19:31:24.786Z,99966.25
2022-10-13T19:33:54.691Z,99954.75
2022-10-13T19:36:25.854Z,99957.22
2022-10-13T19:38:54.672Z,99958.06
2022-10-13T19:41:21.923Z,99958.06
2022-10-13T19:43:49.385Z,99931.19
2022-10-13T19:46:17.010Z,99936.72
2022-10-13T19:48:44.798Z,99952.34
2022-10-13T19:51:11.981Z,99952.94
2022-10-13T19:53:39.900Z,99967.72
2022-10-13T19:56:07.589Z,99950.66
2022-10-13T19:58:34.674Z,99964.41
2022-10-13T20:01:04.580Z,99964.59
2022-10-13T20:03:31.856Z,99969.31
2022-10-13T20:05:59.095Z,99955.34
2022-10-13T20:08:26.018Z,99932.78
2022-10-13T20:10:52.782Z,99972.16
2022-10-13T20:13:19.511Z,99945.47
2022-10-13T20:15:47.862Z,99967.81
2022-10-13T20:18:14.684Z,99978.47
2022-10-13T20:20:42.006Z,99988.50
2022-10-13T20:23:09.106Z,99980.50
2022-10-13T20:25:38.921Z,99978.06
2022-10-13T20:28:06.375Z,99969.66
2022-10-13T20:30:33.396Z,99979.53
2022-10-13T20:33:00.513Z,99986.91
2022-10-13T20:35:27.751Z,99974.00
2022-10-13T20:37:54.858Z,99980.78
2022-10-13T20:40:21.983Z,99982.63
2022-10-13T20:42:50.883Z,99966.59
2022-10-13T20:45:18.138Z,99983.44
2022-10-13T20:47:44.984Z,99980.97
2022-10-13T20:50:11.678Z,99954.91
2022-10-13T20:52:38.654Z,99973.78
2022-10-13T20:55:05.598Z,99959.44
2022-10-13T20:57:35.204Z,99959.00
2022-10-13T21:00:02.205Z,99972.16
2022-10-13T21:02:28.862Z,99968.88
2022-10-13T21:04:55.563Z,99962.88
2022-10-13T21:07:22.692Z,99964.94
2022-10-13T21:09:53.608Z,99970.47
2022-10-13T21:12:21.535Z,99970.47
2022-10-13T21:14:48.431Z,99968.63
2022-10-13T21:17:15.290Z,99975.81
2022-10-13T21:19:41.950Z,99963.47
2022-10-13T21:22:08.649Z,99964.53
2022-10-13T21:24:35.352Z,99962.28
2022-10-13T21:27:02.064Z,99974.00
2022-10-13T21:29:29.149Z,99947.53
2022-10-13T21:31:55.972Z,99948.13
2022-10-13T21:34:22.742Z,99953.88
2022-10-13T21:36:49.527Z,99974.19
2022-10-13T21:39:16.274Z,99983.63
2022-10-13T21:41:43.035Z,99979.34
2022-10-13T21:44:14.826Z,99978.31
2022-10-13T21:46:41.634Z,99947.94
2022-10-13T21:49:09.318Z,99976.25
2022-10-13T21:51:39.356Z,99984.28
2022-10-13T21:54:09.355Z,99983.25
2022-10-13T21:56:36.947Z,99985.50
2022-10-13T21:59:04.471Z,99963.75
2022-10-13T22:01:31.168Z,99983.25
2022-10-13T22:04:00.764Z,99988.22
2022-10-13T22:06:28.875Z,99987.38
2022-10-13T22:08:57.336Z,99995.00
2022-10-13T22:11:27.150Z,99992.53
2022-10-13T22:13:55.698Z,99977.91
2022-10-13T22:16:24.858Z,99985.88
2022-10-13T22:18:53.834Z,100003.56
2022-10-13T22:21:23.590Z,100011.13
2022-10-13T22:23:50.350Z,100003.16
2022-10-13T22:26:18.435Z,99997.81
2022-10-13T22:28:48.075Z,99991.84
2022-10-13T22:31:15.134Z,100002.28
2022-10-13T22:33:43.570Z,100002.50
2022-10-13T22:36:18.218Z,99995.94
2022-10-13T22:38:46.663Z,99995.75
2022-10-13T22:41:15.010Z,99999.03
2022-10-13T22:43:44.065Z,100003.78
2022-10-13T22:46:12.944Z,99987.13
2022-10-13T22:48:41.072Z,99977.25
2022-10-13T22:51:14.009Z,100001.69
2022-10-13T22:53:40.692Z,99985.06
2022-10-13T22:56:09.398Z,100002.94
2022-10-13T22:58:37.093Z,100004.56
2022-10-13T23:01:13.329Z,99994.13
2022-10-13T23:03:40.758Z,99996.66
2022-10-13T23:06:12.301Z,99980.41
2022-10-13T23:08:39.073Z,99989.69
2022-10-13T23:11:05.760Z,99967.31
2022-10-13T23:13:32.469Z,99983.09
2022-10-13T23:16:07.532Z,99977.53
2022-10-13T23:18:38.293Z,99979.19
2022-10-13T23:21:10.570Z,99966.50
2022-10-13T23:23:37.238Z,99965.84
2022-10-13T23:26:08.924Z,99948.00
2022-10-13T23:28:36.255Z,99968.94
2022-10-13T23:31:05.075Z,99966.28
2022-10-13T23:33:32.133Z,99969.75
2022-10-13T23:36:00.538Z,99970.16
2022-10-13T23:38:29.284Z,99966.88
2022-10-13T23:41:08.698Z,99965.03
2022-10-13T23:43:36.531Z,99966.88
2022-10-13T23:46:03.857Z,99963.59
2022-10-13T23:48:30.939Z,99945.13
2022-10-13T23:50:58.058Z,99954.97
2022-10-13T23:53:24.912Z,99957.88
2022-10-13T23:55:51.587Z,99965.03
2022-10-13T23:58:25.207Z,99955.81
